createdAt,value
2022-10-14T00:00:38.288Z,17.70
2022-10-14T00:03:06.595Z,17.70
2022-10-14T00:05:34.611Z,17.70
2022-10-14T00:08:02.509Z,17.70
2022-10-14T00:10:30.416Z,17.70
2022-10-14T00:12:59.656Z,17.70
2022-10-14T00:15:27.581Z,17.70
2022-10-14T00:17:55.432Z,17.70
2022-10-14T00:20:23.358Z,17.70
2022-10-14T00:22:51.267Z,17.70
2022-10-14T00:25:19.203Z,17.70
2022-10-14T00:27:47.090Z,17.70
2022-10-14T00:30:16.505Z,17.70
2022-10-14T00:32:44.392Z,17.70
2022-10-14T00:35:12.462Z,17.70
2022-10-14T00:37:40.395Z,17.70
2022-10-14T00:40:09.487Z,17.60
2022-10-14T00:42:37.368Z,17.70
2022-10-14T00:45:09.298Z,17.70
2022-10-14T00:47:39.370Z,17.70
2022-10-14T00:50:07.631Z,17.70
2022-10-14T00:52:35.619Z,17.70
2022-10-14T00:55:06.083Z,17.70
2022-10-14T00:57:34.116Z,17.60
2022-10-14T01:00:06.520Z,17.70
2022-10-14T01:02:34.645Z,17.70
2022-10-14T01:05:06.098Z,17.60
2022-10-14T01:07:42.330Z,17.60
2022-10-14T01:10:18.974Z,17.70
2022-10-14T01:13:01.933Z,17.70
2022-10-14T01:15:38.616Z,17.70
2022-10-14T01:18:20.961Z,17.70
2022-10-14T01:21:14.963Z,17.70
2022-10-14T01:24:20.357Z,17.60
2022-10-14T01:27:12.773Z,17.60
2022-10-14T01:29:58.459Z,17.70
2022-10-14T01:32:30.305Z,17.60
2022-10-14T01:35:04.585Z,17.70
2022-10-14T01:37:35.728Z,17.70
2022-10-14T01:40:09.419Z,17.70
2022-10-14T01:42:41.193Z,17.60
2022-10-14T01:45:16.657Z,17.60
2022-10-14T01:47:46.416Z,17.60
2022-10-14T01:50:17.050Z,17.60
2022-10-14T01:52:49.797Z,18.00
2022-10-14T01:55:22.118Z,17.70
2022-10-14T01:57:53.865Z,17.70
2022-10-14T02:00:23.137Z,17.70
2022-10-14T02:02:51.145Z,17.70
2022-10-14T02:05:23.456Z,17.60
2022-10-14T02:07:55.861Z,17.60
2022-10-14T02:10:35.153Z,17.60
2022-10-14T02:13:15.765Z,17.70
2022-10-14T02:15:55.280Z,17.70
2022-10-14T02:18:27.473Z,17.60
2022-10-14T02:20:58.953Z,17.60
2022-10-14T02:23:31.026Z,17.70
2022-10-14T02:26:00.484Z,17.60
2022-10-14T02:28:30.684Z,17.70
2022-10-14T02:31:02.041Z,17.70
2022-10-14T02:33:33.696Z,17.60
2022-10-14T02:36:03.206Z,17.60
2022-10-14T02:38:32.700Z,17.60
2022-10-14T02:41:04.397Z,17.60
2022-10-14T02:43:32.441Z,17.60
2022-10-14T02:46:03.916Z,17.60
2022-10-14T02:48:31.848Z,17.60
2022-10-14T02:50:59.704Z,17.60
2022-10-14T02:53:27.609Z,17.60
2022-10-14T02:55:55.587Z,17.60
2022-10-14T02:58:23.615Z,17.60
2022-10-14T03:00:51.586Z,17.60
2022-10-14T03:03:21.945Z,17.60
2022-10-14T03:05:49.863Z,17.60
2022-10-14T03:08:17.921Z,17.60
2022-10-14T03:10:48.185Z,17.60
2022-10-14T03:13:16.366Z,17.70
2022-10-14T03:15:44.374Z,17.60
2022-10-14T03:18:12.256Z,17.60
2022-10-14T03:20:41.503Z,17.60
2022-10-14T03:23:09.375Z,17.60
2022-10-14T03:25:37.249Z,17.70
2022-10-14T03:28:05.365Z,17.60
2022-10-14T03:30:33.492Z,18.20
2022-10-14T03:33:01.408Z,17.60
2022-10-14T03:35:29.401Z,17.70
2022-10-14T03:38:02.142Z,17.60
2022-10-14T03:40:30.072Z,17.60
2022-10-14T03:43:00.770Z,17.60
2022-10-14T03:45:29.366Z,17.70
2022-10-14T03:47:57.346Z,17.60
2022-10-14T03:50:25.318Z,17.60
2022-10-14T03:52:55.625Z,17.60
2022-10-14T03:55:25.810Z,17.60
2022-10-14T03:57:53.793Z,17.60
2022-10-14T04:00:21.812Z,17.60
2022-10-14T04:02:49.704Z,17.60
2022-10-14T04:05:17.646Z,17.60
2022-10-14T04:07:45.508Z,17.60
2022-10-14T04:10:13.439Z,17.60
2022-10-14T04:12:43.813Z,17.60
2022-10-14T04:15:11.970Z,17.60
2022-10-14T04:17:39.862Z,17.60
2022-10-14T04:20:08.369Z,17.30
2022-10-14T04:22:36.321Z,17.70
2022-10-14T04:25:04.505Z,17.60
2022-10-14T04:27:32.414Z,17.60
2022-10-14T04:30:01.614Z,17.60
2022-10-14T04:32:29.764Z,17.60
2022-10-14T04:34:57.655Z,17.60
2022-10-14T04:37:25.587Z,17.60
2022-10-14T04:39:53.473Z,17.60
2022-10-14T04:42:21.611Z,17.60
2022-10-14T04:44:50.581Z,17.60
2022-10-14T04:47:20.069Z,17.60
2022-10-14T04:49:47.976Z,17.60
2022-10-14T04:52:15.928Z,17.60
2022-10-14T04:54:43.867Z,17.60
2022-10-14T04:57:11.834Z,17.60
2022-10-14T04:59:39.936Z,17.60
2022-10-14T05:02:07.912Z,17.60
2022-10-14T05:04:37.176Z,17.60
2022-10-14T05:07:05.105Z,17.60
2022-10-14T05:09:33.372Z,17.60
2022-10-14T05:12:01.277Z,17.60
2022-10-14T05:14:29.591Z,17.60
2022-10-14T05:16:57.570Z,17.60
2022-10-14T05:19:25.629Z,17.60
2022-10-14T05:21:54.944Z,17.60
2022-10-14T05:24:22.853Z,17.60
2022-10-14T05:26:51.326Z,17.60
2022-10-14T05:29:19.253Z,17.60
2022-10-14T05:31:47.099Z,17.60
2022-10-14T05:34:15.139Z,17.60
2022-10-14T05:36:43.037Z,17.60
2022-10-14T05:39:12.360Z,17.60
2022-10-14T05:41:40.632Z,17.60
2022-10-14T05:44:08.525Z,17.60
2022-10-14T05:46:36.400Z,17.60
2022-10-14T05:49:06.129Z,17.60
2022-10-14T05:51:34.462Z,17.60
2022-10-14T05:54:02.698Z,17.60
2022-10-14T05:56:31.946Z,17.60
2022-10-14T05:58:59.983Z,17.60
2022-10-14T06:01:27.901Z,17.60
2022-10-14T06:03:55.796Z,17.60
2022-10-14T06:06:28.729Z,17.60
2022-10-14T06:08:57.040Z,17.60
2022-10-14T06:11:25.286Z,17.60
2022-10-14T06:13:54.964Z,17.60
2022-10-14T06:16:22.836Z,17.60
2022-10-14T06:18:54.243Z,17.60
2022-10-14T06:21:22.313Z,17.60
2022-10-14T06:23:50.228Z,17.70
2022-10-14T06:26:18.185Z,17.60
2022-10-14T06:28:46.464Z,17.60
2022-10-14T06:31:15.839Z,17.60
2022-10-14T06:33:44.967Z,17.60
2022-10-14T06:36:12.978Z,17.60
2022-10-14T06:38:40.980Z,17.60
2022-10-14T06:41:08.908Z,17.50
2022-10-14T06:43:36.938Z,17.60
2022-10-14T06:46:05.517Z,17.60
2022-10-14T06:48:35.005Z,17.60
2022-10-14T06:51:03.503Z,17.60
2022-10-14T06:53:31.623Z,17.50
2022-10-14T06:56:00.999Z,17.60
2022-10-14T06:58:29.452Z,17.60
2022-10-14T07:01:02.283Z,17.50
2022-10-14T07:03:30.237Z,17.50
2022-10-14T07:05:59.460Z,17.50
2022-10-14T07:08:27.400Z,17.60
2022-10-14T07:10:55.304Z,17.60
2022-10-14T07:13:23.223Z,17.50
2022-10-14T07:15:52.325Z,17.60
2022-10-14T07:18:20.726Z,17.60
2022-10-14T07:20:48.629Z,17.60
2022-10-14T07:23:17.911Z,17.60
2022-10-14T07:25:45.826Z,17.60
2022-10-14T07:28:13.764Z,17.60
2022-10-14T07:30:41.774Z,17.60
2022-10-14T07:33:09.677Z,17.60
2022-10-14T07:35:39.225Z,17.60
2022-10-14T07:38:07.147Z,17.60
2022-10-14T07:40:36.428Z,17.60
2022-10-14T07:43:04.311Z,17.60
2022-10-14T07:45:35.682Z,17.60
2022-10-14T07:48:04.077Z,17.60
2022-10-14T07:50:32.020Z,17.60
2022-10-14T07:53:01.410Z,17.60
2022-10-14T07:55:29.584Z,17.60
2022-10-14T07:57:59.352Z,17.60
2022-10-14T08:00:27.259Z,17.60
2022-10-14T08:02:55.185Z,17.60
2022-10-14T08:05:37.759Z,17.60
2022-10-14T08:08:07.029Z,17.60
2022-10-14T08:10:35.157Z,17.60
2022-10-14T08:13:04.826Z,17.60
2022-10-14T08:15:34.975Z,17.60
2022-10-14T08:18:02.921Z,17.60
2022-10-14T08:20:30.794Z,17.70
2022-10-14T08:22:58.730Z,17.60
2022-10-14T08:25:26.933Z,17.60
2022-10-14T08:27:57.350Z,17.60
2022-10-14T08:30:26.704Z,17.70
2022-10-14T08:32:55.186Z,17.60
2022-10-14T08:35:23.061Z,17.70
2022-10-14T08:37:58.096Z,17.60
2022-10-14T08:40:26.742Z,17.70
2022-10-14T08:43:02.806Z,17.60
2022-10-14T08:45:36.835Z,17.70
2022-10-14T08:48:12.436Z,17.70
2022-10-14T08:50:48.775Z,17.70
2022-10-14T08:53:19.307Z,17.70
2022-10-14T08:55:49.528Z,17.70
2022-10-14T08:58:22.659Z,17.70
2022-10-14T09:00:54.066Z,17.70
2022-10-14T09:03:24.390Z,17.60
2022-10-14T09:05:58.833Z,17.60
2022-10-14T09:08:33.649Z,17.60
2022-10-14T09:11:01.685Z,17.70
2022-10-14T09:13:35.672Z,17.70
2022-10-14T09:16:09.302Z,17.70
2022-10-14T09:18:41.609Z,17.70
2022-10-14T09:21:40.667Z,17.70
2022-10-14T09:24:15.358Z,17.70
2022-10-14T09:26:45.720Z,17.70
2022-10-14T09:29:24.240Z,17.70
2022-10-14T09:31:56.804Z,17.70
2022-10-14T09:34:31.210Z,17.70
2022-10-14T09:37:06.376Z,17.70
2022-10-14T09:39:39.711Z,17.70
2022-10-14T09:42:14.423Z,18.20
2022-10-14T09:44:42.340Z,17.70
2022-10-14T09:47:18.775Z,17.70
2022-10-14T09:49:49.376Z,17.70
2022-10-14T09:52:23.922Z,17.70
2022-10-14T09:54:56.198Z,17.70
2022-10-14T09:57:26.088Z,17.70
2022-10-14T09:59:58.041Z,17.70
2022-10-14T10:02:41.935Z,17.70
2022-10-14T10:05:14.634Z,17.70
2022-10-14T10:07:42.649Z,17.70
2022-10-14T10:10:21.082Z,17.70
2022-10-14T10:12:49.125Z,17.70
2022-10-14T10:15:21.190Z,17.70
2022-10-14T10:17:51.393Z,17.60
2022-10-14T10:20:31.856Z,17.70
2022-10-14T10:23:17.226Z,17.70
2022-10-14T10:25:44.950Z,17.70
2022-10-14T10:28:20.117Z,17.70
2022-10-14T10:31:00.734Z,17.70
2022-10-14T10:33:38.613Z,17.70
2022-10-14T10:38:59.872Z,17.70
2022-10-14T10:41:44.774Z,17.70
2022-10-14T10:44:30.735Z,17.70
2022-10-14T10:47:31.459Z,17.70
2022-10-14T10:50:27.803Z,17.70
2022-10-14T10:53:29.355Z,17.70
2022-10-14T10:56:10.457Z,17.70
2022-10-14T10:58:55.072Z,17.70
2022-10-14T11:01:36.760Z,17.70
2022-10-14T11:04:22.221Z,17.70
2022-10-14T11:07:18.778Z,17.70
2022-10-14T11:10:14.391Z,17.70
2022-10-14T11:12:49.602Z,17.70
2022-10-14T11:15:45.741Z,17.70
2022-10-14T11:18:20.608Z,17.70
2022-10-14T11:21:01.794Z,17.70
2022-10-14T11:23:40.607Z,17.70
2022-10-14T11:26:20.549Z,17.70
2022-10-14T11:28:56.616Z,17.70
2022-10-14T11:31:36.667Z,17.70
2022-10-14T11:34:17.610Z,17.70
2022-10-14T11:37:00.072Z,17.70
2022-10-14T11:39:39.346Z,17.70
2022-10-14T11:42:28.661Z,17.70
2022-10-14T11:45:11.452Z,17.70
2022-10-14T11:47:41.985Z,17.70
2022-10-14T11:50:19.081Z,17.70
2022-10-14T11:52:53.897Z,17.70
2022-10-14T11:55:25.077Z,17.70
2022-10-14T11:57:58.555Z,17.70
2022-10-14T12:00:48.382Z,17.70
2022-10-14T12:03:22.680Z,17.70
2022-10-14T12:05:59.483Z,17.70
2022-10-14T12:08:33.210Z,17.70
2022-10-14T12:11:10.124Z,17.70
2022-10-14T12:13:42.619Z,17.70
2022-10-14T12:16:15.002Z,17.70
2022-10-14T12:18:43.963Z,17.70
2022-10-14T12:21:18.505Z,17.70
2022-10-14T12:23:50.401Z,17.80
2022-10-14T12:26:43.248Z,17.80
2022-10-14T12:29:15.417Z,17.70
2022-10-14T12:31:48.809Z,17.80
2022-10-14T12:34:34.756Z,17.70
2022-10-14T12:37:50.033Z,17.70
2022-10-14T12:40:31.443Z,17.80
2022-10-14T12:43:17.790Z,17.80
2022-10-14T12:46:00.663Z,17.80
2022-10-14T12:48:32.564Z,17.80
2022-10-14T12:51:12.079Z,17.80
2022-10-14T12:53:41.685Z,17.70
2022-10-14T12:56:11.301Z,17.70
2022-10-14T12:58:57.814Z,17.70
2022-10-14T13:01:25.825Z,17.80
2022-10-14T13:03:56.339Z,17.80
2022-10-14T13:06:30.756Z,17.80
2022-10-14T13:09:30.256Z,17.80
2022-10-14T13:12:41.905Z,17.80
2022-10-14T13:15:59.601Z,17.70
2022-10-14T13:18:53.812Z,17.70
2022-10-14T13:21:32.194Z,17.70
2022-10-14T13:24:02.655Z,17.80
2022-10-14T13:26:39.304Z,17.80
2022-10-14T13:29:17.585Z,17.70
2022-10-14T13:31:54.836Z,17.70
2022-10-14T13:34:34.733Z,17.70
2022-10-14T13:37:29.131Z,17.70
2022-10-14T13:39:57.865Z,17.70
2022-10-14T13:42:30.118Z,17.80
2022-10-14T13:45:06.733Z,17.80
2022-10-14T13:47:36.113Z,17.80
2022-10-14T13:50:06.504Z,17.80
2022-10-14T13:52:35.440Z,17.70
2022-10-14T13:55:17.802Z,17.70
2022-10-14T13:58:12.534Z,17.70
2022-10-14T14:00:43.827Z,17.80
2022-10-14T14:03:24.242Z,17.80
2022-10-14T14:05:54.420Z,17.80
2022-10-14T14:08:39.645Z,17.80
2022-10-14T14:11:16.913Z,17.80
2022-10-14T14:13:55.841Z,17.80
2022-10-14T14:16:33.986Z,17.80
2022-10-14T14:19:08.352Z,17.80
2022-10-14T14:21:38.830Z,17.80
2022-10-14T14:24:20.114Z,17.80
2022-10-14T14:26:48.110Z,17.80
2022-10-14T14:29:18.437Z,17.80
2022-10-14T14:34:37.154Z,17.80
2022-10-14T14:39:59.744Z,17.80
2022-10-14T14:42:30.393Z,17.80
2022-10-14T14:45:04.166Z,17.70
2022-10-14T14:47:32.564Z,17.80
2022-10-14T14:50:25.567Z,17.80
2022-10-14T14:52:51.785Z,17.80
2022-10-14T14:55:37.153Z,17.80
2022-10-14T14:58:06.111Z,17.80
2022-10-14T15:00:34.129Z,17.80
2022-10-14T15:03:04.513Z,17.80
2022-10-14T15:05:32.401Z,17.80
2022-10-14T15:08:01.713Z,17.80
2022-10-14T15:10:31.892Z,17.80
2022-10-14T15:13:02.721Z,17.90
2022-10-14T15:15:32.506Z,17.80
2022-10-14T15:18:14.551Z,17.80
2022-10-14T15:20:43.562Z,17.80
2022-10-14T15:23:45.944Z,17.80
2022-10-14T15:26:35.649Z,17.80
2022-10-14T15:29:15.098Z,17.80
2022-10-14T15:31:44.855Z,17.80
2022-10-14T15:34:18.893Z,17.80
2022-10-14T15:36:49.686Z,17.80
2022-10-14T15:39:19.165Z,17.80
2022-10-14T15:41:47.288Z,17.80
2022-10-14T15:44:15.219Z,17.80
2022-10-14T15:47:02.776Z,17.90
2022-10-14T15:49:33.944Z,17.80
2022-10-14T15:52:01.896Z,17.80
2022-10-14T15:54:31.114Z,17.80
2022-10-14T15:56:59.268Z,17.80
2022-10-14T15:59:27.600Z,17.80
2022-10-14T16:01:55.772Z,17.80
2022-10-14T16:04:27.717Z,17.80
2022-10-14T16:06:57.657Z,17.80
2022-10-14T16:09:27.541Z,17.80
2022-10-14T16:11:59.578Z,17.80
2022-10-14T16:14:28.603Z,17.80
2022-10-14T16:16:56.621Z,17.80
2022-10-14T16:19:24.502Z,17.80
2022-10-14T16:21:52.468Z,17.80
2022-10-14T16:24:22.249Z,17.80
2022-10-14T16:26:50.849Z,17.80
2022-10-14T16:29:21.005Z,17.80
2022-10-14T16:31:50.202Z,17.80
2022-10-14T16:34:18.561Z,17.80
2022-10-14T16:36:46.755Z,17.80
2022-10-14T16:39:14.882Z,17.80
2022-10-14T16:41:43.649Z,17.80
2022-10-14T16:44:24.632Z,17.80
2022-10-14T16:47:12.793Z,17.80
2022-10-14T16:49:40.951Z,17.80
2022-10-14T16:52:09.251Z,17.80
2022-10-14T16:54:37.189Z,17.80
2022-10-14T16:57:05.555Z,17.80
2022-10-14T16:59:33.821Z,17.80
2022-10-14T17:02:04.016Z,17.80
2022-10-14T17:04:31.894Z,17.80
2022-10-14T17:07:06.913Z,17.80
2022-10-14T17:09:35.822Z,17.80
2022-10-14T17:12:06.922Z,17.80
2022-10-14T17:14:37.503Z,17.80
2022-10-14T17:17:06.772Z,17.80
2022-10-14T17:19:35.019Z,17.80
2022-10-14T17:22:03.331Z,17.80
2022-10-14T17:24:31.656Z,17.80
2022-10-14T17:27:02.519Z,17.80
2022-10-14T17:29:30.399Z,17.80
2022-10-14T17:31:58.474Z,17.80
2022-10-14T17:34:27.799Z,17.80
2022-10-14T17:36:55.915Z,17.80
2022-10-14T17:39:29.284Z,17.80
2022-10-14T17:41:57.758Z,17.80
2022-10-14T17:44:25.755Z,17.80
2022-10-14T17:46:54.066Z,17.80
2022-10-14T17:49:22.332Z,17.80
2022-10-14T17:51:51.603Z,17.80
2022-10-14T17:54:19.503Z,17.80
2022-10-14T17:56:47.438Z,17.80
2022-10-14T17:59:15.481Z,17.80
2022-10-14T18:02:02.279Z,17.80
2022-10-14T18:04:32.377Z,17.80
2022-10-14T18:07:02.022Z,17.80
2022-10-14T18:09:29.946Z,17.80
2022-10-14T18:12:13.446Z,17.80
2022-10-14T18:14:41.495Z,17.80
2022-10-14T18:17:12.196Z,17.80
2022-10-14T18:19:40.749Z,17.80
2022-10-14T18:22:10.908Z,17.80
2022-10-14T18:24:39.260Z,17.80
2022-10-14T18:27:07.585Z,17.80
2022-10-14T18:29:35.518Z,17.80
2022-10-14T18:32:03.497Z,17.80
2022-10-14T18:34:31.595Z,17.80
2022-10-14T18:36:59.606Z,17.80
2022-10-14T18:39:29.019Z,17.70
2022-10-14T18:41:56.957Z,17.80
2022-10-14T18:44:24.843Z,17.80
2022-10-14T18:46:53.345Z,17.70
2022-10-14T18:49:21.454Z,17.80
2022-10-14T18:51:50.535Z,17.80
2022-10-14T18:54:20.761Z,17.80
2022-10-14T18:56:50.051Z,17.80
2022-10-14T18:59:19.756Z,17.80
2022-10-14T19:01:53.103Z,17.80
2022-10-14T19:04:23.633Z,17.80
2022-10-14T19:06:51.654Z,17.70
2022-10-14T19:09:22.264Z,17.80
2022-10-14T19:11:53.492Z,17.80
2022-10-14T19:14:22.564Z,17.80
2022-10-14T19:16:50.473Z,17.80
2022-10-14T19:19:20.491Z,17.80
2022-10-14T19:21:50.811Z,17.80
2022-10-14T19:24:18.837Z,17.80
2022-10-14T19:26:48.115Z,17.80
2022-10-14T19:29:17.485Z,17.80
2022-10-14T19:31:45.631Z,17.80
2022-10-14T19:34:15.553Z,17.80
2022-10-14T19:36:45.025Z,17.80
2022-10-14T19:39:14.755Z,17.80
2022-10-14T19:41:44.748Z,17.70
2022-10-14T19:44:13.521Z,17.80
2022-10-14T19:46:43.957Z,17.80
2022-10-14T19:49:13.674Z,17.80
2022-10-14T19:51:41.703Z,17.70
2022-10-14T19:54:12.605Z,17.80
2022-10-14T19:56:40.918Z,17.80
2022-10-14T19:59:09.754Z,17.80
2022-10-14T20:01:37.735Z,17.80
2022-10-14T20:04:07.466Z,17.80
2022-10-14T20:06:37.911Z,17.80
2022-10-14T20:09:06.422Z,17.80
2022-10-14T20:11:34.581Z,17.80
2022-10-14T20:14:02.611Z,17.80
2022-10-14T20:16:30.623Z,17.80
2022-10-14T20:18:58.585Z,17.80
2022-10-14T20:21:29.990Z,17.70
2022-10-14T20:23:59.182Z,17.80
2022-10-14T20:26:27.407Z,17.80
2022-10-14T20:28:55.935Z,17.80
2022-10-14T20:31:25.963Z,17.70
2022-10-14T20:33:55.599Z,17.70
2022-10-14T20:36:23.773Z,17.80
2022-10-14T20:38:53.058Z,17.80
2022-10-14T20:41:22.737Z,17.80
2022-10-14T20:43:50.971Z,17.80
2022-10-14T20:46:19.749Z,17.80
2022-10-14T20:48:47.862Z,17.80
2022-10-14T20:51:19.474Z,17.80
2022-10-14T20:53:47.393Z,17.70
2022-10-14T20:56:16.754Z,17.70
2022-10-14T20:58:44.933Z,17.70
2022-10-14T21:01:15.458Z,17.70
2022-10-14T21:03:44.936Z,17.70
2022-10-14T21:06:19.621Z,17.70
2022-10-14T21:08:49.379Z,17.80
2022-10-14T21:11:21.542Z,17.80
2022-10-14T21:13:51.154Z,17.70
2022-10-14T21:16:22.496Z,17.70
2022-10-14T21:18:57.447Z,17.80
2022-10-14T21:21:27.339Z,17.70
2022-10-14T21:23:55.340Z,17.70
2022-10-14T21:26:25.212Z,17.70
2022-10-14T21:28:53.493Z,17.70
2022-10-14T21:31:21.619Z,17.70
2022-10-14T21:33:54.750Z,17.70
2022-10-14T21:36:22.816Z,17.70
2022-10-14T21:38:50.822Z,17.70
2022-10-14T21:41:18.847Z,17.70
2022-10-14T21:43:48.154Z,17.70
2022-10-14T21:46:17.332Z,17.70
2022-10-14T21:48:46.157Z,17.80
2022-10-14T21:51:15.922Z,17.70
2022-10-14T21:53:45.372Z,17.70
2022-10-14T21:56:14.877Z,17.70
2022-10-14T21:58:43.271Z,17.70
2022-10-14T22:01:15.881Z,17.70
2022-10-14T22:03:44.606Z,17.70
2022-10-14T22:06:14.898Z,17.80
2022-10-14T22:08:44.785Z,17.70
2022-10-14T22:11:17.566Z,17.70
2022-10-14T22:13:45.617Z,17.70
2022-10-14T22:16:16.814Z,17.70
2022-10-14T22:18:46.690Z,17.70
2022-10-14T22:21:16.553Z,17.80
2022-10-14T22:23:45.265Z,17.70
2022-10-14T22:26:14.698Z,17.70
2022-10-14T22:28:42.851Z,17.70
2022-10-14T22:31:12.964Z,17.80
2022-10-14T22:33:42.852Z,17.70
2022-10-14T22:36:12.222Z,17.40
2022-10-14T22:38:41.297Z,17.70
2022-10-14T22:41:10.716Z,17.70
2022-10-14T22:43:39.127Z,17.70
2022-10-14T22:46:09.441Z,17.70
2022-10-14T22:48:37.936Z,17.70
2022-10-14T22:51:09.556Z,17.70
2022-10-14T22:53:38.079Z,17.70
2022-10-14T22:56:07.976Z,17.70
2022-10-14T22:58:35.858Z,17.70
2022-10-14T23:01:07.415Z,17.70
2022-10-14T23:03:35.652Z,17.70
2022-10-14T23:06:05.276Z,17.70
2022-10-14T23:08:35.497Z,17.70
2022-10-14T23:11:04.555Z,17.70
2022-10-14T23:13:33.335Z,17.70
2022-10-14T23:16:03.204Z,17.70
2022-10-14T23:18:33.713Z,17.70
2022-10-14T23:21:08.612Z,17.60
2022-10-14T23:23:38.200Z,17.70
2022-10-14T23:26:06.336Z,17.80
2022-10-14T23:28:34.233Z,17.70
2022-10-14T23:31:02.202Z,17.70
2022-10-14T23:33:30.628Z,17.70
2022-10-14T23:36:03.921Z,17.70
2022-10-14T23:38:31.990Z,17.70
2022-10-14T23:41:02.748Z,17.70
2022-10-14T23:43:31.030Z,17.70
2022-10-14T23:45:59.329Z,17.70
2022-10-14T23:48:27.585Z,17.70
2022-10-14T23:50:55.511Z,17.70
2022-10-14T23:53:23.449Z,17.70
2022-10-14T23:55:51.651Z,17.70
2022-10-14T23:58:20.977Z,17.70
